This is the latest recevied weather packets stored in our database for station/object VK3ANZ. If no packets are shown the sender has not sent any weather packets the latest 10 day(s).
| Time | Temp. | Humidity | Pressure | Rain* | Wind** | Luminosity | Snow |
|---|---|---|---|---|---|---|---|
| 1778071530 | 8.33° C | 47% | 1019.2 hPa | 0 mm | - | 0 W/m² | - |
| 1778069130 | 8.89° C | 52% | 1019 hPa | 0 mm | - | 0 W/m² | - |
| 1778063130 | 11.11° C | 74% | 1017.7 hPa | 0 mm | - | 0 W/m² | - |
| 1778058961 | 12.22° C | 69% | 1016.7 hPa | 0.25 mm | - | 0 W/m² | - |
| 1778055365 | 14.44° C | 31% | 1016 hPa | 0 mm | - | 0 W/m² | - |
| 1778052921 | 15° C | 27% | 1016 hPa | 0 mm | - | 0 W/m² | - |
| 1778048729 | 16.67° C | 21% | 1016.6 hPa | 0 mm | - | 39 W/m² | - |
| 1778043917 | 16.67° C | 21% | 1017.8 hPa | 0 mm | - | 84 W/m² | - |
| 1778042119 | 16.67° C | 21% | 1018 hPa | 0 mm | - | 83 W/m² | - |
| 1778040920 | 16.67° C | 20% | 1018.4 hPa | 0 mm | - | 108 W/m² | - |
| 1778033130 | 15° C | 23% | 1020.4 hPa | 0 mm | - | 72 W/m² | - |
| 1778031929 | 15.56° C | 22% | 1020.7 hPa | 0 mm | - | 77 W/m² | - |
| 1778027739 | 15° C | 23% | 1021.4 hPa | 0 mm | - | 110 W/m² | - |
| 1778027129 | 15° C | 22% | 1021.4 hPa | 0 mm | - | 114 W/m² | - |
| 1778013929 | 12.22° C | 29% | 1021.9 hPa | 0 mm | - | 0 W/m² | - |
| 1778008525 | 11.67° C | 30% | 1021.9 hPa | 0 mm | - | 0 W/m² | - |
| 1778007319 | 11.67° C | 30% | 1022 hPa | 0 mm | - | 0 W/m² | - |
| 1778003731 | 11.67° C | 32% | 1022.1 hPa | 0 mm | - | 0 W/m² | - |
| 1778003127 | 11.67° C | 32% | 1022.1 hPa | 0 mm | - | 0 W/m² | - |
| 1778002519 | 11.67° C | 32% | 1022.3 hPa | 0 mm | - | 0 W/m² | - |
| 1778001946 | 12.22° C | 32% | 1022.3 hPa | 0 mm | - | 0 W/m² | - |
| 1778000138 | 12.22° C | 32% | 1022.4 hPa | 0 mm | - | 0 W/m² | - |
| 1777996518 | 12.22° C | 33% | 1022.8 hPa | 0 mm | - | 0 W/m² | - |
| 1777995969 | 12.22° C | 33% | 1023 hPa | 0 mm | - | 0 W/m² | - |
| 1777995318 | 12.22° C | 33% | 1023 hPa | 0 mm | - | 0 W/m² | - |
* Rain latest hour (hover to see other rain measurements)
** Current wind speed in m/s (hover to see current wind gust speed)